sensor_id;sensor_type;location;lat;lon;timestamp;P1;durP1;ratioP1;P2;durP2;ratioP2
17864;SDS011;9058;52.018;4.202;2023-05-20T00:02:12;7.97;;;4.65;;
17864;SDS011;9058;52.018;4.202;2023-05-20T00:04:39;11.60;;;4.50;;
17864;SDS011;9058;52.018;4.202;2023-05-20T00:07:08;6.50;;;4.00;;
17864;SDS011;9058;52.018;4.202;2023-05-20T00:09:37;9.27;;;4.32;;
17864;SDS011;9058;52.018;4.202;2023-05-20T00:12:04;6.32;;;4.20;;
17864;SDS011;9058;52.018;4.202;2023-05-20T00:14:31;8.23;;;4.40;;
17864;SDS011;9058;52.018;4.202;2023-05-20T00:16:57;12.50;;;3.80;;
17864;SDS011;9058;52.018;4.202;2023-05-20T00:19:24;9.02;;;4.38;;
17864;SDS011;9058;52.018;4.202;2023-05-20T00:21:51;8.00;;;4.63;;
17864;SDS011;9058;52.018;4.202;2023-05-20T00:24:20;6.07;;;4.22;;
17864;SDS011;9058;52.018;4.202;2023-05-20T00:26:46;10.98;;;4.13;;
17864;SDS011;9058;52.018;4.202;2023-05-20T00:29:13;9.00;;;3.80;;
17864;SDS011;9058;52.018;4.202;2023-05-20T00:31:40;8.88;;;4.22;;
17864;SDS011;9058;52.018;4.202;2023-05-20T00:34:07;6.35;;;4.00;;
17864;SDS011;9058;52.018;4.202;2023-05-20T00:36:34;11.45;;;4.10;;
17864;SDS011;9058;52.018;4.202;2023-05-20T00:39:01;7.88;;;4.20;;
17864;SDS011;9058;52.018;4.202;2023-05-20T00:41:29;7.30;;;3.95;;
17864;SDS011;9058;52.018;4.202;2023-05-20T00:43:55;7.40;;;3.80;;
17864;SDS011;9058;52.018;4.202;2023-05-20T00:46:22;7.88;;;4.07;;
17864;SDS011;9058;52.018;4.202;2023-05-20T00:48:49;9.20;;;4.28;;
17864;SDS011;9058;52.018;4.202;2023-05-20T00:51:18;8.95;;;4.05;;
17864;SDS011;9058;52.018;4.202;2023-05-20T00:53:47;7.55;;;3.60;;
17864;SDS011;9058;52.018;4.202;2023-05-20T00:56:13;9.15;;;4.25;;
17864;SDS011;9058;52.018;4.202;2023-05-20T00:58:41;10.48;;;4.47;;
17864;SDS011;9058;52.018;4.202;2023-05-20T01:01:08;8.13;;;4.32;;
17864;SDS011;9058;52.018;4.202;2023-05-20T01:03:35;8.73;;;4.07;;
17864;SDS011;9058;52.018;4.202;2023-05-20T01:06:01;10.80;;;4.90;;
17864;SDS011;9058;52.018;4.202;2023-05-20T01:08:28;8.52;;;4.25;;
17864;SDS011;9058;52.018;4.202;2023-05-20T01:10:57;6.00;;;4.15;;
17864;SDS011;9058;52.018;4.202;2023-05-20T01:13:26;6.75;;;4.18;;
17864;SDS011;9058;52.018;4.202;2023-05-20T01:15:57;8.80;;;4.07;;
17864;SDS011;9058;52.018;4.202;2023-05-20T01:18:24;7.20;;;3.92;;
17864;SDS011;9058;52.018;4.202;2023-05-20T01:20:54;8.02;;;4.57;;
17864;SDS011;9058;52.018;4.202;2023-05-20T01:23:31;7.22;;;4.20;;
17864;SDS011;9058;52.018;4.202;2023-05-20T01:25:57;8.35;;;4.10;;
17864;SDS011;9058;52.018;4.202;2023-05-20T01:28:23;9.13;;;4.65;;
17864;SDS011;9058;52.018;4.202;2023-05-20T01:30:51;9.30;;;4.60;;
17864;SDS011;9058;52.018;4.202;2023-05-20T01:33:21;10.55;;;4.88;;
17864;SDS011;9058;52.018;4.202;2023-05-20T01:35:48;7.53;;;4.15;;
17864;SDS011;9058;52.018;4.202;2023-05-20T01:38:14;6.45;;;4.57;;
17864;SDS011;9058;52.018;4.202;2023-05-20T01:40:44;6.70;;;4.75;;
17864;SDS011;9058;52.018;4.202;2023-05-20T01:43:11;6.28;;;4.90;;
17864;SDS011;9058;52.018;4.202;2023-05-20T01:45:40;10.75;;;5.00;;
17864;SDS011;9058;52.018;4.202;2023-05-20T01:48:08;7.90;;;4.60;;
17864;SDS011;9058;52.018;4.202;2023-05-20T01:50:35;8.60;;;5.25;;
17864;SDS011;9058;52.018;4.202;2023-05-20T01:53:02;9.30;;;5.20;;
17864;SDS011;9058;52.018;4.202;2023-05-20T01:55:32;9.07;;;4.90;;
17864;SDS011;9058;52.018;4.202;2023-05-20T01:58:00;10.90;;;4.90;;
17864;SDS011;9058;52.018;4.202;2023-05-20T02:00:28;6.22;;;4.47;;
17864;SDS011;9058;52.018;4.202;2023-05-20T02:02:56;11.63;;;5.35;;
17864;SDS011;9058;52.018;4.202;2023-05-20T02:05:27;9.65;;;4.75;;
17864;SDS011;9058;52.018;4.202;2023-05-20T02:07:54;15.55;;;6.00;;
17864;SDS011;9058;52.018;4.202;2023-05-20T02:10:21;8.35;;;5.65;;
17864;SDS011;9058;52.018;4.202;2023-05-20T02:12:49;10.63;;;5.22;;
17864;SDS011;9058;52.018;4.202;2023-05-20T02:15:18;9.98;;;4.47;;
17864;SDS011;9058;52.018;4.202;2023-05-20T02:17:45;9.60;;;5.07;;
17864;SDS011;9058;52.018;4.202;2023-05-20T02:20:12;10.32;;;4.70;;
17864;SDS011;9058;52.018;4.202;2023-05-20T02:22:38;8.43;;;4.72;;
17864;SDS011;9058;52.018;4.202;2023-05-20T02:25:05;12.43;;;5.30;;
17864;SDS011;9058;52.018;4.202;2023-05-20T02:27:32;10.48;;;5.95;;
17864;SDS011;9058;52.018;4.202;2023-05-20T02:29:58;7.90;;;4.75;;
17864;SDS011;9058;52.018;4.202;2023-05-20T02:32:26;7.72;;;4.32;;
17864;SDS011;9058;52.018;4.202;2023-05-20T02:34:53;10.68;;;4.60;;
17864;SDS011;9058;52.018;4.202;2023-05-20T02:37:20;8.25;;;5.03;;
17864;SDS011;9058;52.018;4.202;2023-05-20T02:39:47;11.10;;;4.60;;
17864;SDS011;9058;52.018;4.202;2023-05-20T02:42:14;9.55;;;4.63;;
17864;SDS011;9058;52.018;4.202;2023-05-20T02:44:41;9.77;;;4.78;;
17864;SDS011;9058;52.018;4.202;2023-05-20T02:47:09;8.98;;;5.25;;
17864;SDS011;9058;52.018;4.202;2023-05-20T02:49:38;9.93;;;5.53;;
17864;SDS011;9058;52.018;4.202;2023-05-20T02:52:05;10.05;;;4.70;;
17864;SDS011;9058;52.018;4.202;2023-05-20T02:54:33;9.80;;;5.10;;
17864;SDS011;9058;52.018;4.202;2023-05-20T02:57:01;14.10;;;4.93;;
17864;SDS011;9058;52.018;4.202;2023-05-20T02:59:27;12.05;;;5.70;;
17864;SDS011;9058;52.018;4.202;2023-05-20T03:01:54;7.85;;;5.22;;
17864;SDS011;9058;52.018;4.202;2023-05-20T03:04:20;10.23;;;5.18;;
17864;SDS011;9058;52.018;4.202;2023-05-20T03:06:48;9.32;;;5.30;;
17864;SDS011;9058;52.018;4.202;2023-05-20T03:09:16;11.55;;;5.00;;
17864;SDS011;9058;52.018;4.202;2023-05-20T03:11:42;8.55;;;5.05;;
17864;SDS011;9058;52.018;4.202;2023-05-20T03:14:09;10.18;;;5.22;;
17864;SDS011;9058;52.018;4.202;2023-05-20T03:16:36;10.05;;;5.10;;
17864;SDS011;9058;52.018;4.202;2023-05-20T03:19:03;9.30;;;5.30;;
17864;SDS011;9058;52.018;4.202;2023-05-20T03:21:30;11.27;;;5.10;;
17864;SDS011;9058;52.018;4.202;2023-05-20T03:23:58;8.57;;;5.13;;
17864;SDS011;9058;52.018;4.202;2023-05-20T03:26:25;13.55;;;5.72;;
17864;SDS011;9058;52.018;4.202;2023-05-20T03:28:51;7.57;;;5.03;;
17864;SDS011;9058;52.018;4.202;2023-05-20T03:31:18;10.85;;;5.25;;
17864;SDS011;9058;52.018;4.202;2023-05-20T03:33:45;7.72;;;5.45;;
17864;SDS011;9058;52.018;4.202;2023-05-20T03:36:11;11.90;;;5.53;;
17864;SDS011;9058;52.018;4.202;2023-05-20T03:38:37;12.98;;;5.25;;
17864;SDS011;9058;52.018;4.202;2023-05-20T03:41:05;11.38;;;5.85;;
17864;SDS011;9058;52.018;4.202;2023-05-20T03:43:31;10.50;;;5.63;;
17864;SDS011;9058;52.018;4.202;2023-05-20T03:45:58;9.73;;;4.88;;
17864;SDS011;9058;52.018;4.202;2023-05-20T03:48:25;10.07;;;5.68;;
17864;SDS011;9058;52.018;4.202;2023-05-20T03:50:52;7.63;;;5.18;;
17864;SDS011;9058;52.018;4.202;2023-05-20T03:53:18;7.53;;;5.68;;
17864;SDS011;9058;52.018;4.202;2023-05-20T03:55:45;12.02;;;5.82;;
17864;SDS011;9058;52.018;4.202;2023-05-20T03:58:14;11.02;;;5.30;;
17864;SDS011;9058;52.018;4.202;2023-05-20T04:00:41;10.05;;;5.00;;
17864;SDS011;9058;52.018;4.202;2023-05-20T04:03:07;11.07;;;5.20;;
17864;SDS011;9058;52.018;4.202;2023-05-20T04:05:34;10.25;;;5.43;;
17864;SDS011;9058;52.018;4.202;2023-05-20T04:08:02;8.60;;;5.13;;
17864;SDS011;9058;52.018;4.202;2023-05-20T04:10:29;8.82;;;5.75;;
17864;SDS011;9058;52.018;4.202;2023-05-20T04:12:56;8.52;;;5.38;;
17864;SDS011;9058;52.018;4.202;2023-05-20T04:15:24;7.65;;;4.88;;
17864;SDS011;9058;52.018;4.202;2023-05-20T04:17:53;13.27;;;5.45;;
17864;SDS011;9058;52.018;4.202;2023-05-20T04:20:20;8.48;;;5.35;;
17864;SDS011;9058;52.018;4.202;2023-05-20T04:22:49;8.27;;;5.32;;
17864;SDS011;9058;52.018;4.202;2023-05-20T04:25:16;11.18;;;4.97;;
17864;SDS011;9058;52.018;4.202;2023-05-20T04:27:43;8.63;;;5.05;;
17864;SDS011;9058;52.018;4.202;2023-05-20T04:30:09;10.07;;;5.65;;
17864;SDS011;9058;52.018;4.202;2023-05-20T04:32:39;8.40;;;5.57;;
17864;SDS011;9058;52.018;4.202;2023-05-20T04:35:06;12.13;;;6.38;;
17864;SDS011;9058;52.018;4.202;2023-05-20T04:37:35;9.57;;;5.45;;
17864;SDS011;9058;52.018;4.202;2023-05-20T04:40:03;7.05;;;5.28;;
17864;SDS011;9058;52.018;4.202;2023-05-20T04:42:31;10.00;;;5.18;;
17864;SDS011;9058;52.018;4.202;2023-05-20T04:44:58;10.32;;;5.90;;
17864;SDS011;9058;52.018;4.202;2023-05-20T04:47:26;8.98;;;5.18;;
17864;SDS011;9058;52.018;4.202;2023-05-20T04:49:54;7.93;;;5.07;;
17864;SDS011;9058;52.018;4.202;2023-05-20T04:52:21;8.10;;;5.20;;
17864;SDS011;9058;52.018;4.202;2023-05-20T04:54:48;9.23;;;5.90;;
17864;SDS011;9058;52.018;4.202;2023-05-20T04:57:15;9.93;;;5.47;;
17864;SDS011;9058;52.018;4.202;2023-05-20T04:59:41;10.18;;;5.07;;
17864;SDS011;9058;52.018;4.202;2023-05-20T05:02:09;8.88;;;5.20;;
17864;SDS011;9058;52.018;4.202;2023-05-20T05:04:36;7.32;;;5.05;;
17864;SDS011;9058;52.018;4.202;2023-05-20T05:07:04;9.48;;;5.57;;
17864;SDS011;9058;52.018;4.202;2023-05-20T05:09:31;8.35;;;5.18;;
17864;SDS011;9058;52.018;4.202;2023-05-20T05:11:57;6.10;;;4.95;;
17864;SDS011;9058;52.018;4.202;2023-05-20T05:14:23;9.00;;;5.40;;
17864;SDS011;9058;52.018;4.202;2023-05-20T05:16:50;10.10;;;5.35;;
17864;SDS011;9058;52.018;4.202;2023-05-20T05:19:17;6.18;;;4.40;;
17864;SDS011;9058;52.018;4.202;2023-05-20T05:21:46;9.45;;;5.25;;
17864;SDS011;9058;52.018;4.202;2023-05-20T05:24:16;7.50;;;4.90;;
17864;SDS011;9058;52.018;4.202;2023-05-20T05:26:43;9.63;;;5.18;;
17864;SDS011;9058;52.018;4.202;2023-05-20T05:29:10;9.32;;;5.18;;
17864;SDS011;9058;52.018;4.202;2023-05-20T05:31:37;8.70;;;4.85;;
17864;SDS011;9058;52.018;4.202;2023-05-20T05:34:05;8.70;;;4.75;;
17864;SDS011;9058;52.018;4.202;2023-05-20T05:36:32;9.00;;;4.93;;
17864;SDS011;9058;52.018;4.202;2023-05-20T05:38:59;9.27;;;4.82;;
17864;SDS011;9058;52.018;4.202;2023-05-20T05:41:26;6.88;;;4.30;;
17864;SDS011;9058;52.018;4.202;2023-05-20T05:43:53;10.18;;;5.28;;
17864;SDS011;9058;52.018;4.202;2023-05-20T05:46:19;7.75;;;4.90;;
17864;SDS011;9058;52.018;4.202;2023-05-20T05:48:46;6.47;;;4.82;;
17864;SDS011;9058;52.018;4.202;2023-05-20T05:51:14;5.40;;;4.10;;
17864;SDS011;9058;52.018;4.202;2023-05-20T05:53:41;9.13;;;4.53;;
17864;SDS011;9058;52.018;4.202;2023-05-20T05:56:07;8.95;;;4.88;;
17864;SDS011;9058;52.018;4.202;2023-05-20T05:58:36;9.13;;;4.22;;
17864;SDS011;9058;52.018;4.202;2023-05-20T06:01:03;8.43;;;4.60;;
17864;SDS011;9058;52.018;4.202;2023-05-20T06:03:29;7.22;;;4.15;;
17864;SDS011;9058;52.018;4.202;2023-05-20T06:05:56;8.85;;;4.38;;
17864;SDS011;9058;52.018;4.202;2023-05-20T06:08:23;9.23;;;4.43;;
17864;SDS011;9058;52.018;4.202;2023-05-20T06:10:50;8.13;;;4.20;;
17864;SDS011;9058;52.018;4.202;2023-05-20T06:13:18;8.95;;;4.72;;
17864;SDS011;9058;52.018;4.202;2023-05-20T06:15:47;6.32;;;3.70;;
17864;SDS011;9058;52.018;4.202;2023-05-20T06:18:14;9.50;;;4.45;;
17864;SDS011;9058;52.018;4.202;2023-05-20T06:20:40;6.40;;;4.10;;
17864;SDS011;9058;52.018;4.202;2023-05-20T06:23:06;6.45;;;3.90;;
17864;SDS011;9058;52.018;4.202;2023-05-20T06:25:33;9.13;;;4.38;;
17864;SDS011;9058;52.018;4.202;2023-05-20T06:27:59;7.10;;;3.85;;
17864;SDS011;9058;52.018;4.202;2023-05-20T06:30:26;6.32;;;3.85;;
17864;SDS011;9058;52.018;4.202;2023-05-20T06:32:54;7.03;;;4.65;;
17864;SDS011;9058;52.018;4.202;2023-05-20T06:35:20;6.75;;;4.05;;
17864;SDS011;9058;52.018;4.202;2023-05-20T06:37:46;5.97;;;3.92;;
17864;SDS011;9058;52.018;4.202;2023-05-20T06:40:13;10.10;;;3.55;;
17864;SDS011;9058;52.018;4.202;2023-05-20T06:42:39;6.82;;;3.67;;
17864;SDS011;9058;52.018;4.202;2023-05-20T06:45:06;9.10;;;3.60;;
17864;SDS011;9058;52.018;4.202;2023-05-20T06:47:32;7.50;;;3.85;;
17864;SDS011;9058;52.018;4.202;2023-05-20T06:50:00;10.13;;;3.33;;
17864;SDS011;9058;52.018;4.202;2023-05-20T06:52:27;6.95;;;3.92;;
17864;SDS011;9058;52.018;4.202;2023-05-20T06:54:53;6.80;;;3.38;;
17864;SDS011;9058;52.018;4.202;2023-05-20T06:57:19;5.22;;;3.25;;
17864;SDS011;9058;52.018;4.202;2023-05-20T06:59:46;6.65;;;3.50;;
17864;SDS011;9058;52.018;4.202;2023-05-20T07:02:13;7.97;;;3.88;;
17864;SDS011;9058;52.018;4.202;2023-05-20T07:04:39;8.07;;;3.55;;
17864;SDS011;9058;52.018;4.202;2023-05-20T07:07:07;4.65;;;3.28;;
17864;SDS011;9058;52.018;4.202;2023-05-20T07:09:33;7.03;;;3.60;;
17864;SDS011;9058;52.018;4.202;2023-05-20T07:12:00;4.70;;;3.78;;
17864;SDS011;9058;52.018;4.202;2023-05-20T07:14:27;9.50;;;3.65;;
17864;SDS011;9058;52.018;4.202;2023-05-20T07:16:54;5.68;;;3.20;;
17864;SDS011;9058;52.018;4.202;2023-05-20T07:19:20;7.43;;;3.50;;
17864;SDS011;9058;52.018;4.202;2023-05-20T07:21:46;6.90;;;3.60;;
17864;SDS011;9058;52.018;4.202;2023-05-20T07:24:15;6.72;;;3.75;;
17864;SDS011;9058;52.018;4.202;2023-05-20T07:26:41;7.60;;;3.75;;
17864;SDS011;9058;52.018;4.202;2023-05-20T07:29:08;6.80;;;3.45;;
17864;SDS011;9058;52.018;4.202;2023-05-20T07:31:34;7.05;;;3.55;;
17864;SDS011;9058;52.018;4.202;2023-05-20T07:34:01;7.63;;;3.50;;
17864;SDS011;9058;52.018;4.202;2023-05-20T07:36:28;6.75;;;3.50;;
17864;SDS011;9058;52.018;4.202;2023-05-20T07:38:54;6.93;;;3.72;;
17864;SDS011;9058;52.018;4.202;2023-05-20T07:41:23;4.72;;;3.50;;
17864;SDS011;9058;52.018;4.202;2023-05-20T07:43:50;6.38;;;3.88;;
17864;SDS011;9058;52.018;4.202;2023-05-20T07:46:17;6.43;;;3.25;;
17864;SDS011;9058;52.018;4.202;2023-05-20T07:48:44;9.38;;;3.10;;
17864;SDS011;9058;52.018;4.202;2023-05-20T07:51:10;8.38;;;3.22;;
17864;SDS011;9058;52.018;4.202;2023-05-20T07:53:37;8.77;;;3.45;;
17864;SDS011;9058;52.018;4.202;2023-05-20T07:56:04;4.90;;;3.15;;
17864;SDS011;9058;52.018;4.202;2023-05-20T08:01:00;5.28;;;3.22;;
17864;SDS011;9058;52.018;4.202;2023-05-20T08:03:26;6.20;;;3.20;;
17864;SDS011;9058;52.018;4.202;2023-05-20T08:05:53;3.00;;;2.70;;
17864;SDS011;9058;52.018;4.202;2023-05-20T08:08:19;5.30;;;3.10;;
17864;SDS011;9058;52.018;4.202;2023-05-20T08:10:45;4.35;;;2.75;;
17864;SDS011;9058;52.018;4.202;2023-05-20T08:13:12;5.57;;;3.05;;
17864;SDS011;9058;52.018;4.202;2023-05-20T08:15:39;6.47;;;3.30;;
17864;SDS011;9058;52.018;4.202;2023-05-20T08:18:07;4.95;;;2.63;;
17864;SDS011;9058;52.018;4.202;2023-05-20T08:20:33;3.70;;;2.67;;
17864;SDS011;9058;52.018;4.202;2023-05-20T08:23:00;4.97;;;2.90;;
17864;SDS011;9058;52.018;4.202;2023-05-20T08:25:26;7.53;;;2.55;;
17864;SDS011;9058;52.018;4.202;2023-05-20T08:27:54;3.20;;;2.22;;
17864;SDS011;9058;52.018;4.202;2023-05-20T08:30:20;4.85;;;2.28;;
17864;SDS011;9058;52.018;4.202;2023-05-20T08:32:47;4.90;;;2.50;;
17864;SDS011;9058;52.018;4.202;2023-05-20T08:35:15;3.88;;;2.35;;
17864;SDS011;9058;52.018;4.202;2023-05-20T08:37:41;4.90;;;2.13;;
17864;SDS011;9058;52.018;4.202;2023-05-20T08:40:08;3.35;;;1.98;;
17864;SDS011;9058;52.018;4.202;2023-05-20T08:42:35;5.63;;;2.22;;
17864;SDS011;9058;52.018;4.202;2023-05-20T08:45:05;4.90;;;2.15;;
17864;SDS011;9058;52.018;4.202;2023-05-20T08:47:32;2.30;;;2.05;;
17864;SDS011;9058;52.018;4.202;2023-05-20T08:49:59;4.63;;;2.00;;
17864;SDS011;9058;52.018;4.202;2023-05-20T08:52:27;3.83;;;1.83;;
17864;SDS011;9058;52.018;4.202;2023-05-20T08:54:57;4.72;;;2.17;;
17864;SDS011;9058;52.018;4.202;2023-05-20T08:57:23;4.68;;;2.03;;
17864;SDS011;9058;52.018;4.202;2023-05-20T08:59:52;2.25;;;1.80;;
17864;SDS011;9058;52.018;4.202;2023-05-20T09:02:19;11.15;;;4.20;;
17864;SDS011;9058;52.018;4.202;2023-05-20T09:04:46;11.30;;;3.17;;
17864;SDS011;9058;52.018;4.202;2023-05-20T09:07:13;4.03;;;2.15;;
17864;SDS011;9058;52.018;4.202;2023-05-20T09:09:41;4.43;;;1.67;;
17864;SDS011;9058;52.018;4.202;2023-05-20T09:12:07;3.15;;;1.38;;
17864;SDS011;9058;52.018;4.202;2023-05-20T09:14:35;1.70;;;1.50;;
17864;SDS011;9058;52.018;4.202;2023-05-20T09:17:04;5.45;;;1.67;;
17864;SDS011;9058;52.018;4.202;2023-05-20T09:19:32;2.97;;;1.83;;
17864;SDS011;9058;52.018;4.202;2023-05-20T09:22:01;2.97;;;1.60;;
17864;SDS011;9058;52.018;4.202;2023-05-20T09:24:29;4.03;;;1.60;;
17864;SDS011;9058;52.018;4.202;2023-05-20T09:26:58;2.55;;;1.65;;
17864;SDS011;9058;52.018;4.202;2023-05-20T09:29:25;3.45;;;1.88;;
17864;SDS011;9058;52.018;4.202;2023-05-20T09:31:51;1.58;;;1.20;;
17864;SDS011;9058;52.018;4.202;2023-05-20T09:34:18;4.40;;;1.88;;
17864;SDS011;9058;52.018;4.202;2023-05-20T09:36:46;5.75;;;1.63;;
17864;SDS011;9058;52.018;4.202;2023-05-20T09:39:15;4.35;;;1.50;;
17864;SDS011;9058;52.018;4.202;2023-05-20T09:41:45;3.75;;;1.60;;
17864;SDS011;9058;52.018;4.202;2023-05-20T09:44:17;3.47;;;2.00;;
17864;SDS011;9058;52.018;4.202;2023-05-20T09:46:44;3.25;;;1.85;;
17864;SDS011;9058;52.018;4.202;2023-05-20T09:49:11;3.20;;;1.50;;
17864;SDS011;9058;52.018;4.202;2023-05-20T09:51:38;5.50;;;2.00;;
17864;SDS011;9058;52.018;4.202;2023-05-20T09:54:05;2.03;;;1.48;;
17864;SDS011;9058;52.018;4.202;2023-05-20T09:56:32;2.50;;;1.60;;
17864;SDS011;9058;52.018;4.202;2023-05-20T09:58:59;3.22;;;1.70;;
17864;SDS011;9058;52.018;4.202;2023-05-20T10:01:31;4.55;;;1.58;;
17864;SDS011;9058;52.018;4.202;2023-05-20T10:03:58;5.57;;;1.90;;
17864;SDS011;9058;52.018;4.202;2023-05-20T10:06:34;3.78;;;1.40;;
17864;SDS011;9058;52.018;4.202;2023-05-20T10:09:07;3.28;;;1.95;;
17864;SDS011;9058;52.018;4.202;2023-05-20T10:11:37;5.05;;;1.70;;
17864;SDS011;9058;52.018;4.202;2023-05-20T10:14:14;5.35;;;1.90;;
17864;SDS011;9058;52.018;4.202;2023-05-20T10:16:47;6.93;;;1.88;;
17864;SDS011;9058;52.018;4.202;2023-05-20T10:19:17;3.92;;;1.60;;
17864;SDS011;9058;52.018;4.202;2023-05-20T10:21:55;1.60;;;1.50;;
17864;SDS011;9058;52.018;4.202;2023-05-20T10:24:28;2.75;;;1.77;;
17864;SDS011;9058;52.018;4.202;2023-05-20T10:26:54;4.57;;;1.83;;
17864;SDS011;9058;52.018;4.202;2023-05-20T10:29:22;1.98;;;1.27;;
17864;SDS011;9058;52.018;4.202;2023-05-20T10:31:51;5.78;;;1.58;;
17864;SDS011;9058;52.018;4.202;2023-05-20T10:34:18;4.88;;;1.88;;
17864;SDS011;9058;52.018;4.202;2023-05-20T10:36:45;3.00;;;1.50;;
17864;SDS011;9058;52.018;4.202;2023-05-20T10:39:14;3.58;;;1.92;;
17864;SDS011;9058;52.018;4.202;2023-05-20T10:41:42;3.35;;;1.80;;
17864;SDS011;9058;52.018;4.202;2023-05-20T10:44:09;4.50;;;1.90;;
17864;SDS011;9058;52.018;4.202;2023-05-20T10:46:36;2.63;;;1.50;;
17864;SDS011;9058;52.018;4.202;2023-05-20T10:49:05;3.72;;;1.42;;
17864;SDS011;9058;52.018;4.202;2023-05-20T10:51:43;3.63;;;1.70;;
17864;SDS011;9058;52.018;4.202;2023-05-20T10:54:09;1.65;;;1.40;;
17864;SDS011;9058;52.018;4.202;2023-05-20T10:56:36;4.32;;;1.77;;
17864;SDS011;9058;52.018;4.202;2023-05-20T10:59:05;3.22;;;1.27;;
17864;SDS011;9058;52.018;4.202;2023-05-20T11:01:32;3.95;;;1.73;;
17864;SDS011;9058;52.018;4.202;2023-05-20T11:03:59;2.38;;;1.30;;
17864;SDS011;9058;52.018;4.202;2023-05-20T11:06:29;5.72;;;1.35;;
17864;SDS011;9058;52.018;4.202;2023-05-20T11:08:56;2.55;;;1.40;;
17864;SDS011;9058;52.018;4.202;2023-05-20T11:11:28;3.05;;;1.48;;
17864;SDS011;9058;52.018;4.202;2023-05-20T11:13:55;1.60;;;1.40;;
17864;SDS011;9058;52.018;4.202;2023-05-20T11:16:22;2.00;;;1.40;;
17864;SDS011;9058;52.018;4.202;2023-05-20T11:18:48;3.70;;;1.40;;
17864;SDS011;9058;52.018;4.202;2023-05-20T11:21:15;3.92;;;1.50;;
17864;SDS011;9058;52.018;4.202;2023-05-20T11:23:44;2.25;;;1.40;;
17864;SDS011;9058;52.018;4.202;2023-05-20T11:26:11;4.30;;;1.75;;
17864;SDS011;9058;52.018;4.202;2023-05-20T11:28:37;2.85;;;2.00;;
17864;SDS011;9058;52.018;4.202;2023-05-20T11:31:04;6.13;;;1.42;;
17864;SDS011;9058;52.018;4.202;2023-05-20T11:33:30;3.03;;;1.80;;
17864;SDS011;9058;52.018;4.202;2023-05-20T11:35:57;4.25;;;1.65;;
17864;SDS011;9058;52.018;4.202;2023-05-20T11:38:23;5.55;;;1.50;;
17864;SDS011;9058;52.018;4.202;2023-05-20T11:40:51;3.20;;;1.50;;
17864;SDS011;9058;52.018;4.202;2023-05-20T11:43:18;5.65;;;1.80;;
17864;SDS011;9058;52.018;4.202;2023-05-20T11:45:45;3.45;;;1.50;;
17864;SDS011;9058;52.018;4.202;2023-05-20T11:48:12;5.45;;;1.52;;
17864;SDS011;9058;52.018;4.202;2023-05-20T11:50:40;4.63;;;1.48;;
17864;SDS011;9058;52.018;4.202;2023-05-20T11:53:07;5.30;;;1.75;;
17864;SDS011;9058;52.018;4.202;2023-05-20T11:55:43;2.53;;;1.67;;
17864;SDS011;9058;52.018;4.202;2023-05-20T11:58:12;3.50;;;1.88;;
17864;SDS011;9058;52.018;4.202;2023-05-20T12:00:40;2.13;;;1.65;;
17864;SDS011;9058;52.018;4.202;2023-05-20T12:03:06;3.72;;;1.77;;
17864;SDS011;9058;52.018;4.202;2023-05-20T12:05:33;4.47;;;1.90;;
17864;SDS011;9058;52.018;4.202;2023-05-20T12:08:00;4.75;;;1.60;;
17864;SDS011;9058;52.018;4.202;2023-05-20T12:10:34;3.22;;;1.80;;
17864;SDS011;9058;52.018;4.202;2023-05-20T12:13:01;2.55;;;1.33;;
17864;SDS011;9058;52.018;4.202;2023-05-20T12:15:30;2.00;;;1.30;;
17864;SDS011;9058;52.018;4.202;2023-05-20T12:17:57;2.83;;;2.05;;
17864;SDS011;9058;52.018;4.202;2023-05-20T12:20:23;2.90;;;2.60;;
17864;SDS011;9058;52.018;4.202;2023-05-20T12:22:50;5.15;;;1.73;;
17864;SDS011;9058;52.018;4.202;2023-05-20T12:25:17;2.80;;;1.73;;
17864;SDS011;9058;52.018;4.202;2023-05-20T12:27:48;4.35;;;1.73;;
17864;SDS011;9058;52.018;4.202;2023-05-20T12:30:15;2.65;;;1.70;;
17864;SDS011;9058;52.018;4.202;2023-05-20T12:32:43;2.90;;;2.05;;
17864;SDS011;9058;52.018;4.202;2023-05-20T12:35:10;4.45;;;2.30;;
17864;SDS011;9058;52.018;4.202;2023-05-20T12:37:37;4.20;;;1.73;;
17864;SDS011;9058;52.018;4.202;2023-05-20T12:40:04;2.33;;;2.00;;
17864;SDS011;9058;52.018;4.202;2023-05-20T12:42:33;2.90;;;1.50;;
17864;SDS011;9058;52.018;4.202;2023-05-20T12:44:59;4.25;;;1.63;;
17864;SDS011;9058;52.018;4.202;2023-05-20T12:47:26;17.77;;;2.38;;
17864;SDS011;9058;52.018;4.202;2023-05-20T12:49:54;2.55;;;2.10;;
17864;SDS011;9058;52.018;4.202;2023-05-20T12:52:21;5.55;;;1.98;;
17864;SDS011;9058;52.018;4.202;2023-05-20T12:54:50;3.15;;;1.70;;
17864;SDS011;9058;52.018;4.202;2023-05-20T12:57:17;2.13;;;1.60;;
17864;SDS011;9058;52.018;4.202;2023-05-20T12:59:43;2.45;;;1.80;;
17864;SDS011;9058;52.018;4.202;2023-05-20T13:02:10;5.20;;;1.60;;
17864;SDS011;9058;52.018;4.202;2023-05-20T13:04:37;1.85;;;1.45;;
17864;SDS011;9058;52.018;4.202;2023-05-20T13:07:04;3.83;;;1.63;;
17864;SDS011;9058;52.018;4.202;2023-05-20T13:09:33;3.80;;;1.85;;
17864;SDS011;9058;52.018;4.202;2023-05-20T13:11:59;2.00;;;1.80;;
17864;SDS011;9058;52.018;4.202;2023-05-20T13:14:26;5.30;;;1.40;;
17864;SDS011;9058;52.018;4.202;2023-05-20T13:16:54;2.17;;;1.70;;
17864;SDS011;9058;52.018;4.202;2023-05-20T13:19:20;2.45;;;1.92;;
17864;SDS011;9058;52.018;4.202;2023-05-20T13:21:47;5.30;;;1.88;;
17864;SDS011;9058;52.018;4.202;2023-05-20T13:24:16;3.58;;;1.90;;
17864;SDS011;9058;52.018;4.202;2023-05-20T13:26:42;4.03;;;2.15;;
17864;SDS011;9058;52.018;4.202;2023-05-20T13:29:09;4.82;;;2.08;;
17864;SDS011;9058;52.018;4.202;2023-05-20T13:31:36;2.60;;;1.70;;
17864;SDS011;9058;52.018;4.202;2023-05-20T13:34:03;3.28;;;1.80;;
17864;SDS011;9058;52.018;4.202;2023-05-20T13:36:29;5.38;;;1.70;;
17864;SDS011;9058;52.018;4.202;2023-05-20T13:38:56;4.05;;;1.63;;
17864;SDS011;9058;52.018;4.202;2023-05-20T13:41:24;3.28;;;1.88;;
17864;SDS011;9058;52.018;4.202;2023-05-20T13:43:50;2.58;;;1.63;;
17864;SDS011;9058;52.018;4.202;2023-05-20T13:46:16;3.60;;;1.67;;
17864;SDS011;9058;52.018;4.202;2023-05-20T13:48:43;2.85;;;1.50;;
17864;SDS011;9058;52.018;4.202;2023-05-20T13:51:10;3.40;;;1.73;;
17864;SDS011;9058;52.018;4.202;2023-05-20T13:53:37;2.83;;;1.42;;
17864;SDS011;9058;52.018;4.202;2023-05-20T13:56:03;4.25;;;2.10;;
17864;SDS011;9058;52.018;4.202;2023-05-20T13:58:31;3.88;;;1.60;;
17864;SDS011;9058;52.018;4.202;2023-05-20T14:01:12;3.10;;;1.40;;
17864;SDS011;9058;52.018;4.202;2023-05-20T14:03:39;3.83;;;2.05;;
17864;SDS011;9058;52.018;4.202;2023-05-20T14:06:06;11.05;;;2.30;;
17864;SDS011;9058;52.018;4.202;2023-05-20T14:08:33;12.15;;;2.53;;
17864;SDS011;9058;52.018;4.202;2023-05-20T14:10:59;4.55;;;2.10;;
17864;SDS011;9058;52.018;4.202;2023-05-20T14:13:25;5.30;;;2.25;;
17864;SDS011;9058;52.018;4.202;2023-05-20T14:15:53;3.00;;;2.05;;
17864;SDS011;9058;52.018;4.202;2023-05-20T14:18:20;4.13;;;1.70;;
17864;SDS011;9058;52.018;4.202;2023-05-20T14:20:46;4.13;;;1.75;;
17864;SDS011;9058;52.018;4.202;2023-05-20T14:23:13;3.90;;;2.10;;
17864;SDS011;9058;52.018;4.202;2023-05-20T14:25:39;5.47;;;2.40;;
17864;SDS011;9058;52.018;4.202;2023-05-20T14:28:05;8.85;;;3.10;;
17864;SDS011;9058;52.018;4.202;2023-05-20T14:30:32;7.78;;;2.47;;
17864;SDS011;9058;52.018;4.202;2023-05-20T14:33:00;9.52;;;2.80;;
17864;SDS011;9058;52.018;4.202;2023-05-20T14:35:26;6.80;;;2.88;;
17864;SDS011;9058;52.018;4.202;2023-05-20T14:37:53;9.45;;;2.80;;
17864;SDS011;9058;52.018;4.202;2023-05-20T14:40:20;10.48;;;3.13;;
17864;SDS011;9058;52.018;4.202;2023-05-20T14:42:47;9.43;;;2.65;;
17864;SDS011;9058;52.018;4.202;2023-05-20T14:45:14;6.93;;;2.72;;
17864;SDS011;9058;52.018;4.202;2023-05-20T14:47:40;6.85;;;2.50;;
17864;SDS011;9058;52.018;4.202;2023-05-20T14:50:08;6.85;;;2.85;;
17864;SDS011;9058;52.018;4.202;2023-05-20T14:52:35;9.70;;;2.70;;
17864;SDS011;9058;52.018;4.202;2023-05-20T14:55:01;14.65;;;3.58;;
17864;SDS011;9058;52.018;4.202;2023-05-20T14:57:28;11.40;;;4.35;;
17864;SDS011;9058;52.018;4.202;2023-05-20T14:59:54;10.45;;;2.78;;
17864;SDS011;9058;52.018;4.202;2023-05-20T15:02:21;5.47;;;2.22;;
17864;SDS011;9058;52.018;4.202;2023-05-20T15:04:47;9.68;;;2.78;;